Lakeland, FL

8:40 AM EST on January 23, 2017 (GMT -0500)
Lake Parker | | Change Station

Elev 151 ft 28.05 °N, 81.94 °W | Updated 28 seconds ago

Clear
Clear
60.5 °F
Feels Like 60.5 °F
N
6.0
Wind Variable Wind from SW

Today
High -- | Low -- °F
--% Chance of Precip.
Yesterday
High -- | Low -- °F
Precip. -- in
Pressure 29.54 in
Visibility 10.0 miles
Clouds Few 4000 ft
Dew Point 57 °F
Humidity 88%
Rainfall 0.04 in
Snow Depth Not available.
7:18 AM 6:01 PM
Waning Crescent, 18% visible
METAR KLAL 231250Z 24006KT 10SM FEW040 14/14 A2954
Pressure 29.54 in
Visibility 10.0 miles
Clouds Few 4000 ft
Dew Point 57 °F
Humidity 88%
Rainfall 0.04 in
Snow Depth Not available.
7:18 AM 6:01 PM
Waning Crescent, 18% visible
METAR KLAL 231250Z 24006KT 10SM FEW040 14/14 A2954

Get Your Daily Forecast Email!

Thanks for signing up!

Be on the lookout for a verification email in your inbox.

You'll start receiving the daily forecast at 8 AM.

×

10-Day Weather Forecast

Almanac

Astronomy

Jan. 23, 2017 Rise Set
Actual Time
Civil Twilight
Nautical Twilight
Astronomical Twilight
Moon
Length of Visible Light
Length of Day
Tomorrow will be .
, % of the Moon is Illuminated

Today's Extremes

State Highs State Lows

Community

WunderPhotos

Upload Photos

1,962,540 photos uploaded!

WunderBlog® & News

Nearby

Air Quality

  Air Quality AQ Index Pollutant
Not available.

Snow Depth

Station Depth Elevation

Earthquake Activity

City Distance Mag. Time & Date
Minimum magnitude displayed is 2.5.

Coastal Water Temperatures

Place Temperature

Stations

Nearby Weather Stations

Station Location Temp. Windchill Dew Point Humidity Wind Precip. Elev Updated Type
                   

Watches & Warnings

Lake Wind Advisory
Issued: 4:44 AM EST Jan. 22, 2017 – National Weather Service

... Lake Wind Advisory remains in effect from 10 am this morning
to 7 PM EST Monday...

* timing... 10 am Sunday morning through 7 PM EST Monday. *
Winds... 18 to 20 knots gusts to 25 knots.

* Impacts... high winds will build the waves on local lakes
creating hazardous boating conditions.

Precautionary/preparedness actions...

A lake Wind Advisory indicates that winds will cause rough chop
on area lakes. Small boats will be especially prone to capsizing.





Small Craft Advisory
Issued: 3:40 AM EST Jan. 23, 2017 – National Weather Service

... Small Craft Advisory remains in effect until 7 PM EST this
evening...

* winds... 20 to 25 knots with higher gusts.

* Waves/seas... Bay and inland waters rough.

Precautionary/preparedness actions...

A Small Craft Advisory means that wind speeds of 21 to 33 knots
are expected to produce hazardous wave conditions to small craft.
Inexperienced mariners... especially those operating smaller
vessels should avoid navigating in these conditions.